createdAt,value
2023-01-21T00:01:13.485Z,41.33
2023-01-21T00:03:41.897Z,38.53
2023-01-21T00:06:10.533Z,39.93
2023-01-21T00:08:39.798Z,42.53
2023-01-21T00:11:08.594Z,43.40
2023-01-21T00:13:37.389Z,41.40
2023-01-21T00:16:06.410Z,37.97
2023-01-21T00:18:34.832Z,40.57
2023-01-21T00:21:03.105Z,39.67
2023-01-21T00:23:31.087Z,44.13
2023-01-21T00:26:01.746Z,42.80
2023-01-21T00:28:30.214Z,42.63
2023-01-21T00:30:59.382Z,38.47
2023-01-21T00:33:27.529Z,42.13
2023-01-21T00:36:01.135Z,42.40
2023-01-21T00:38:29.289Z,41.40
2023-01-21T00:41:02.790Z,45.07
2023-01-21T00:43:31.165Z,46.33
2023-01-21T00:45:59.360Z,43.47
2023-01-21T00:48:28.387Z,44.40
2023-01-21T00:51:00.339Z,44.20
2023-01-21T00:53:28.838Z,37.77
2023-01-21T00:56:00.217Z,41.23
2023-01-21T00:58:30.193Z,42.83
2023-01-21T01:01:02.739Z,41.03
2023-01-21T01:03:30.909Z,46.30
2023-01-21T01:06:03.798Z,45.53
2023-01-21T01:08:31.872Z,42.13
2023-01-21T01:11:00.060Z,44.23
2023-01-21T01:13:29.976Z,42.23
2023-01-21T01:15:58.693Z,42.23
2023-01-21T01:18:28.297Z,44.77
2023-01-21T01:20:56.372Z,42.10
2023-01-21T01:23:24.492Z,45.67
2023-01-21T01:25:56.784Z,43.07
2023-01-21T01:28:24.839Z,44.10
2023-01-21T01:30:54.499Z,48.07
2023-01-21T01:33:22.616Z,43.40
2023-01-21T01:35:50.816Z,45.07
2023-01-21T01:38:20.990Z,43.33
2023-01-21T01:40:50.441Z,42.70
2023-01-21T01:43:20.556Z,44.30
2023-01-21T01:45:50.130Z,45.67
2023-01-21T01:48:21.825Z,46.77
2023-01-21T01:50:50.516Z,43.83
2023-01-21T01:53:20.707Z,41.60
2023-01-21T01:55:50.039Z,47.43
2023-01-21T01:58:20.484Z,42.27
2023-01-21T02:00:48.400Z,46.03
2023-01-21T02:03:35.531Z,52.37
2023-01-21T02:06:05.428Z,47.57
2023-01-21T02:08:36.287Z,48.10
2023-01-21T02:11:11.602Z,47.60
2023-01-21T02:13:40.586Z,52.10
2023-01-21T02:16:26.897Z,44.73
2023-01-21T02:19:04.955Z,50.93
2023-01-21T02:21:49.134Z,50.03
2023-01-21T02:24:46.107Z,46.90
2023-01-21T02:27:33.764Z,47.10
2023-01-21T02:30:36.713Z,55.33
2023-01-21T02:33:30.753Z,51.17
2023-01-21T02:36:10.289Z,51.10
2023-01-21T02:38:45.476Z,49.10
2023-01-21T02:41:24.583Z,52.13
2023-01-21T02:43:58.261Z,51.00
2023-01-21T02:46:32.234Z,49.90
2023-01-21T02:49:08.196Z,51.77
2023-01-21T02:51:36.508Z,47.47
2023-01-21T02:54:14.868Z,55.53
2023-01-21T02:56:44.016Z,50.47
2023-01-21T02:59:12.684Z,48.27
2023-01-21T03:01:52.141Z,54.93
2023-01-21T03:04:44.778Z,58.57
2023-01-21T03:07:21.737Z,57.47
2023-01-21T03:09:49.846Z,52.30
2023-01-21T03:12:31.919Z,43.73
2023-01-21T03:15:23.693Z,53.67
2023-01-21T03:17:55.837Z,50.93
2023-01-21T03:20:28.485Z,57.30
2023-01-21T03:23:02.228Z,54.17
2023-01-21T03:25:31.754Z,57.27
2023-01-21T03:28:01.880Z,52.70
2023-01-21T03:30:31.536Z,52.30
2023-01-21T03:33:01.395Z,55.30
2023-01-21T03:35:34.390Z,56.60
2023-01-21T03:38:10.054Z,52.50
2023-01-21T03:40:43.378Z,56.57
2023-01-21T03:43:11.885Z,52.37
2023-01-21T03:45:45.630Z,60.03
2023-01-21T03:48:19.633Z,55.63
2023-01-21T03:50:53.310Z,60.53
2023-01-21T03:53:21.608Z,52.93
2023-01-21T03:55:51.966Z,54.70
2023-01-21T03:58:20.002Z,62.00
2023-01-21T04:00:49.175Z,55.27
2023-01-21T04:03:17.189Z,55.90
2023-01-21T04:05:45.172Z,61.27
2023-01-21T04:08:14.532Z,54.73
2023-01-21T04:10:42.468Z,54.40
2023-01-21T04:13:10.372Z,56.10
2023-01-21T04:15:38.324Z,56.93
2023-01-21T04:18:06.351Z,60.10
2023-01-21T04:20:34.360Z,57.93
2023-01-21T04:23:02.286Z,60.93
2023-01-21T04:25:31.697Z,59.87
2023-01-21T04:27:59.677Z,58.77
2023-01-21T04:30:27.820Z,65.50
2023-01-21T04:32:55.840Z,61.90
2023-01-21T04:35:23.847Z,59.23
2023-01-21T04:37:51.872Z,58.17
2023-01-21T04:40:19.995Z,64.27
2023-01-21T04:42:49.351Z,57.17
2023-01-21T04:45:17.313Z,59.77
2023-01-21T04:47:46.573Z,75.27
2023-01-21T04:50:16.599Z,63.97
2023-01-21T04:52:44.881Z,64.50
2023-01-21T04:55:13.172Z,59.23
2023-01-21T04:57:41.142Z,61.43
2023-01-21T05:00:11.816Z,60.50
2023-01-21T05:02:39.829Z,62.07
2023-01-21T05:05:08.864Z,57.40
2023-01-21T05:07:37.740Z,62.40
2023-01-21T05:10:06.235Z,66.07
2023-01-21T05:12:34.199Z,62.77
2023-01-21T05:15:02.182Z,60.55
2023-01-21T05:17:31.550Z,60.70
2023-01-21T05:19:59.508Z,61.03
2023-01-21T05:22:27.581Z,61.90
2023-01-21T05:24:55.565Z,66.07
2023-01-21T05:27:23.496Z,65.93
2023-01-21T05:29:52.659Z,67.70
2023-01-21T05:32:21.275Z,67.80
2023-01-21T05:34:50.563Z,68.30
2023-01-21T05:37:18.547Z,57.77
2023-01-21T05:39:46.505Z,69.53
2023-01-21T05:42:14.623Z,57.07
2023-01-21T05:44:42.631Z,66.80
2023-01-21T05:47:10.664Z,63.33
2023-01-21T05:49:38.645Z,53.73
2023-01-21T05:52:08.093Z,60.70
2023-01-21T05:54:36.023Z,61.37
2023-01-21T05:57:04.087Z,58.03
2023-01-21T05:59:32.071Z,63.43
2023-01-21T06:02:00.061Z,60.77
2023-01-21T06:04:30.653Z,68.27
2023-01-21T06:06:58.829Z,63.80
2023-01-21T06:09:28.109Z,65.60
2023-01-21T06:11:56.130Z,62.63
2023-01-21T06:14:24.120Z,61.43
2023-01-21T06:16:52.027Z,60.35
2023-01-21T06:19:20.082Z,57.17
2023-01-21T06:21:47.995Z,57.53
2023-01-21T06:24:16.119Z,59.57
2023-01-21T06:26:45.540Z,60.10
2023-01-21T06:29:13.558Z,59.47
2023-01-21T06:31:41.651Z,61.97
2023-01-21T06:34:12.521Z,67.63
2023-01-21T06:36:42.699Z,60.50
2023-01-21T06:39:10.994Z,60.50
2023-01-21T06:41:39.218Z,65.87
2023-01-21T06:44:08.765Z,60.50
2023-01-21T06:46:38.355Z,60.15
2023-01-21T06:49:09.052Z,60.27
2023-01-21T06:51:37.034Z,51.03
2023-01-21T06:54:05.258Z,63.70
2023-01-21T06:56:33.186Z,61.08
2023-01-21T06:59:01.192Z,65.07
2023-01-21T07:01:32.563Z,58.60
2023-01-21T07:04:01.516Z,62.73
2023-01-21T07:06:29.533Z,61.87
2023-01-21T07:08:57.578Z,64.93
2023-01-21T07:11:25.574Z,60.40
2023-01-21T07:13:53.766Z,59.10
2023-01-21T07:16:21.809Z,55.93
2023-01-21T07:19:09.588Z,62.45
2023-01-21T07:21:37.569Z,63.77
2023-01-21T07:24:05.711Z,66.68
2023-01-21T07:26:36.154Z,62.27
2023-01-21T07:29:04.521Z,63.55
2023-01-21T07:31:32.851Z,70.18
2023-01-21T07:34:00.951Z,66.30
2023-01-21T07:36:30.251Z,60.65
2023-01-21T07:38:58.337Z,76.47
2023-01-21T07:41:26.408Z,61.35
2023-01-21T07:43:54.449Z,64.55
2023-01-21T07:46:23.949Z,59.85
2023-01-21T07:48:53.020Z,66.60
2023-01-21T07:51:21.075Z,63.30
2023-01-21T07:53:50.422Z,66.67
2023-01-21T07:56:20.309Z,68.80
2023-01-21T07:58:48.322Z,62.13
2023-01-21T08:01:16.352Z,66.57
2023-01-21T08:03:44.341Z,61.27
2023-01-21T08:06:12.330Z,76.50
2023-01-21T08:08:40.270Z,56.95
2023-01-21T08:11:09.628Z,64.00
2023-01-21T08:13:37.617Z,66.88
2023-01-21T08:16:06.353Z,55.93
2023-01-21T08:18:34.456Z,62.17
2023-01-21T08:21:02.501Z,64.63
2023-01-21T08:23:30.527Z,58.60
2023-01-21T08:26:02.569Z,63.03
2023-01-21T08:28:31.904Z,70.40
2023-01-21T08:31:05.292Z,64.30
2023-01-21T08:33:33.370Z,66.40
2023-01-21T08:36:01.955Z,67.27
2023-01-21T08:38:30.202Z,62.07
2023-01-21T08:40:58.792Z,58.97
2023-01-21T08:43:26.998Z,60.80
2023-01-21T08:45:59.377Z,59.30
2023-01-21T08:48:27.430Z,60.63
2023-01-21T08:50:55.684Z,64.33
2023-01-21T08:53:23.641Z,63.50
2023-01-21T08:55:51.603Z,62.83
2023-01-21T08:58:19.535Z,67.10
2023-01-21T09:00:47.778Z,72.63
2023-01-21T09:03:17.754Z,80.43
2023-01-21T09:05:45.721Z,68.93
2023-01-21T09:08:13.897Z,82.97
2023-01-21T09:10:59.454Z,70.80
2023-01-21T09:13:29.309Z,74.20
2023-01-21T09:15:57.659Z,68.83
2023-01-21T09:18:32.880Z,71.17
2023-01-21T09:21:07.908Z,63.63
2023-01-21T09:23:37.157Z,71.87
2023-01-21T09:26:07.606Z,61.93
2023-01-21T09:28:38.237Z,63.20
2023-01-21T09:31:08.512Z,61.93
2023-01-21T09:33:39.786Z,69.83
2023-01-21T09:36:09.720Z,66.10
2023-01-21T09:38:37.777Z,66.80
2023-01-21T09:41:16.305Z,66.03
2023-01-21T09:43:49.127Z,76.53
2023-01-21T09:46:23.745Z,75.00
2023-01-21T09:48:54.996Z,62.77
2023-01-21T09:51:30.047Z,69.70
2023-01-21T09:53:59.401Z,64.67
2023-01-21T09:56:35.141Z,69.47
2023-01-21T09:59:08.054Z,66.87
2023-01-21T10:01:38.672Z,61.43
2023-01-21T10:04:29.780Z,78.13
2023-01-21T10:07:03.220Z,67.30
2023-01-21T10:09:56.396Z,59.53
2023-01-21T10:12:36.678Z,67.03
2023-01-21T10:15:19.589Z,76.27
2023-01-21T10:17:56.153Z,72.47
2023-01-21T10:20:28.976Z,69.70
2023-01-21T10:23:01.612Z,67.60
2023-01-21T10:25:33.134Z,68.43
2023-01-21T10:28:06.395Z,70.73
2023-01-21T10:30:39.815Z,70.17
2023-01-21T10:33:13.715Z,62.33
2023-01-21T10:35:57.848Z,64.03
2023-01-21T10:38:34.196Z,60.43
2023-01-21T10:41:12.000Z,59.40
2023-01-21T10:43:46.834Z,69.60
2023-01-21T10:46:21.683Z,64.47
2023-01-21T10:48:57.306Z,71.30
2023-01-21T10:51:32.017Z,66.73
2023-01-21T10:54:06.908Z,67.50
2023-01-21T10:56:47.135Z,67.97
2023-01-21T10:59:18.899Z,69.13
2023-01-21T11:01:50.105Z,66.63
2023-01-21T11:04:21.224Z,56.73
2023-01-21T11:07:03.307Z,60.60
2023-01-21T11:09:33.899Z,71.40
2023-01-21T11:12:02.996Z,72.43
2023-01-21T11:14:31.070Z,60.83
2023-01-21T11:16:59.617Z,58.47
2023-01-21T11:19:30.464Z,58.17
2023-01-21T11:22:04.240Z,63.23
2023-01-21T11:24:42.154Z,61.90
2023-01-21T11:27:19.788Z,66.77
2023-01-21T11:29:49.736Z,61.87
2023-01-21T11:32:21.279Z,61.20
2023-01-21T11:34:50.854Z,65.60
2023-01-21T11:37:25.059Z,60.03
2023-01-21T11:39:56.284Z,59.43
2023-01-21T11:42:25.654Z,57.40
2023-01-21T11:44:55.662Z,59.10
2023-01-21T11:47:38.827Z,58.27
2023-01-21T11:50:13.631Z,59.63
2023-01-21T11:52:43.232Z,55.07
2023-01-21T11:55:29.707Z,54.73
2023-01-21T11:57:58.032Z,61.57
2023-01-21T12:00:27.992Z,60.27
2023-01-21T12:02:58.881Z,49.33
2023-01-21T12:05:33.188Z,52.40
2023-01-21T12:08:05.485Z,59.23
2023-01-21T12:10:36.811Z,57.53
2023-01-21T12:13:16.041Z,55.63
2023-01-21T12:16:13.733Z,59.17
2023-01-21T12:19:10.393Z,55.37
2023-01-21T12:21:54.213Z,54.10
2023-01-21T12:24:40.288Z,50.80
2023-01-21T12:27:21.990Z,48.20
2023-01-21T12:30:01.376Z,50.70
2023-01-21T12:32:32.765Z,53.23
2023-01-21T12:35:05.402Z,52.57
2023-01-21T12:37:41.205Z,55.40
2023-01-21T12:40:19.116Z,51.27
2023-01-21T12:42:52.694Z,52.87
2023-01-21T12:45:24.889Z,54.93
2023-01-21T12:47:57.801Z,50.90
2023-01-21T12:50:31.166Z,48.30
2023-01-21T12:53:11.534Z,49.93
2023-01-21T12:55:55.527Z,52.37
2023-01-21T12:58:26.657Z,53.23
2023-01-21T13:00:56.738Z,50.83
2023-01-21T13:03:30.976Z,51.23
2023-01-21T13:06:03.406Z,49.17
2023-01-21T13:08:52.434Z,46.43
2023-01-21T13:11:23.918Z,45.40
2023-01-21T13:13:58.335Z,44.73
2023-01-21T13:16:27.378Z,49.30
2023-01-21T13:18:56.592Z,45.20
2023-01-21T13:21:33.628Z,48.73
2023-01-21T13:24:12.441Z,46.67
2023-01-21T13:26:49.496Z,51.17
2023-01-21T13:29:25.335Z,45.47
2023-01-21T13:32:15.071Z,47.80
2023-01-21T13:34:52.175Z,45.40
2023-01-21T13:37:26.472Z,47.73
2023-01-21T13:40:12.046Z,44.07
2023-01-21T13:42:49.946Z,44.23
2023-01-21T13:45:27.465Z,43.80
2023-01-21T13:48:15.349Z,48.57
2023-01-21T13:51:05.553Z,44.07
2023-01-21T13:53:54.658Z,48.80
2023-01-21T13:56:40.956Z,45.63
2023-01-21T13:59:16.809Z,47.20
2023-01-21T14:01:50.457Z,49.27
2023-01-21T14:04:26.678Z,46.87
2023-01-21T14:06:59.279Z,45.00
2023-01-21T14:09:33.189Z,43.90
2023-01-21T14:12:08.000Z,49.23
2023-01-21T14:15:11.459Z,49.40
2023-01-21T14:18:06.772Z,45.97
2023-01-21T14:21:05.293Z,48.97
2023-01-21T14:23:45.004Z,48.37
2023-01-21T14:26:28.951Z,42.37
2023-01-21T14:29:08.946Z,45.83
2023-01-21T14:31:43.293Z,40.20
2023-01-21T14:34:17.532Z,41.40
2023-01-21T14:36:53.835Z,38.80
2023-01-21T14:39:36.941Z,38.53
2023-01-21T14:42:10.712Z,34.83
2023-01-21T14:44:42.857Z,32.10
2023-01-21T14:47:22.856Z,36.93
2023-01-21T14:49:53.138Z,31.23
2023-01-21T14:52:23.013Z,34.57
2023-01-21T14:54:51.086Z,31.47
2023-01-21T14:57:25.920Z,31.93
2023-01-21T14:59:56.552Z,27.37
2023-01-21T15:02:30.618Z,30.53
2023-01-21T15:05:00.753Z,26.40
2023-01-21T15:07:32.635Z,26.07
2023-01-21T15:10:03.898Z,25.20
2023-01-21T15:12:33.950Z,24.53
2023-01-21T15:15:03.988Z,22.33
2023-01-21T15:18:03.943Z,21.73
2023-01-21T15:20:50.755Z,22.87
2023-01-21T15:23:36.996Z,19.07
2023-01-21T15:26:21.373Z,21.30
2023-01-21T15:28:52.012Z,23.97
2023-01-21T15:31:50.421Z,21.90
2023-01-21T15:34:22.652Z,21.67
2023-01-21T15:36:57.271Z,20.20
2023-01-21T15:39:33.466Z,22.03
2023-01-21T15:42:15.883Z,23.53
2023-01-21T15:44:59.488Z,23.60
2023-01-21T15:47:49.436Z,21.20
2023-01-21T15:50:22.952Z,21.37
2023-01-21T15:53:06.628Z,22.30
2023-01-21T15:55:48.752Z,22.27
2023-01-21T15:58:23.720Z,20.80
2023-01-21T16:00:59.797Z,22.43
2023-01-21T16:03:33.133Z,25.03
2023-01-21T16:06:08.642Z,22.83
2023-01-21T16:08:56.016Z,24.07
2023-01-21T16:11:40.306Z,22.30
2023-01-21T16:14:20.498Z,33.23
2023-01-21T16:16:57.623Z,22.60
2023-01-21T16:19:27.550Z,26.53
2023-01-21T16:22:01.083Z,25.67
2023-01-21T16:24:30.657Z,27.47
2023-01-21T16:27:17.689Z,29.87
2023-01-21T16:29:45.939Z,28.43
2023-01-21T16:32:18.851Z,28.23
2023-01-21T16:34:47.356Z,26.20
2023-01-21T16:37:19.043Z,31.53
2023-01-21T16:39:47.216Z,30.13
2023-01-21T16:42:25.465Z,28.67
2023-01-21T16:44:54.162Z,28.53
2023-01-21T16:47:27.049Z,30.80
2023-01-21T16:49:55.112Z,28.83
2023-01-21T16:52:24.869Z,29.47
2023-01-21T16:54:54.295Z,28.07
2023-01-21T16:57:28.769Z,30.80
2023-01-21T16:59:58.063Z,32.77
2023-01-21T17:02:28.468Z,31.47
2023-01-21T17:04:58.539Z,31.20
2023-01-21T17:07:32.296Z,31.70
2023-01-21T17:10:05.092Z,33.27
2023-01-21T17:12:36.328Z,32.53
2023-01-21T17:15:17.020Z,31.13
2023-01-21T17:17:45.431Z,33.07
2023-01-21T17:20:35.500Z,33.40
2023-01-21T17:23:08.046Z,36.43
2023-01-21T17:25:37.323Z,34.23
2023-01-21T17:28:18.086Z,32.20
2023-01-21T17:30:46.342Z,29.50
2023-01-21T17:33:30.374Z,35.47
2023-01-21T17:36:10.500Z,44.30
2023-01-21T17:38:45.046Z,37.87
2023-01-21T17:41:24.476Z,32.03
2023-01-21T17:43:53.807Z,32.37
2023-01-21T17:46:23.013Z,32.50
2023-01-21T17:48:53.829Z,30.57
2023-01-21T17:51:24.743Z,34.40
2023-01-21T17:53:56.451Z,34.53
2023-01-21T17:56:39.850Z,29.67
2023-01-21T17:59:31.458Z,33.17
2023-01-21T18:01:59.532Z,31.40
2023-01-21T18:04:27.620Z,32.37
2023-01-21T18:06:56.973Z,34.17
2023-01-21T18:09:28.197Z,31.13
2023-01-21T18:11:58.377Z,30.83
2023-01-21T18:14:28.700Z,30.93
2023-01-21T18:16:56.820Z,32.13
2023-01-21T18:19:30.883Z,34.20
2023-01-21T18:21:59.256Z,31.77
2023-01-21T18:24:28.615Z,34.13
2023-01-21T18:26:57.570Z,30.50
2023-01-21T18:29:30.261Z,30.47
2023-01-21T18:31:58.757Z,31.93
2023-01-21T18:34:27.162Z,33.03
2023-01-21T18:36:56.620Z,32.13
2023-01-21T18:39:25.148Z,30.73
2023-01-21T18:41:54.443Z,33.80
2023-01-21T18:44:22.433Z,40.30
2023-01-21T18:46:50.725Z,37.73
2023-01-21T18:49:20.567Z,44.03
2023-01-21T18:51:49.012Z,43.77
2023-01-21T18:54:18.061Z,42.70
2023-01-21T18:56:47.559Z,44.53
2023-01-21T18:59:18.336Z,42.77
2023-01-21T19:01:46.794Z,51.93
2023-01-21T19:04:18.182Z,41.57
2023-01-21T19:06:47.467Z,48.33
2023-01-21T19:09:23.046Z,44.77
2023-01-21T19:11:51.721Z,44.70
2023-01-21T19:14:21.100Z,53.07
2023-01-21T19:16:49.035Z,44.67
2023-01-21T19:19:19.008Z,49.70
2023-01-21T19:21:47.197Z,50.80
2023-01-21T19:24:15.385Z,50.07
2023-01-21T19:26:43.712Z,53.67
2023-01-21T19:29:16.549Z,52.10
2023-01-21T19:31:45.954Z,66.53
2023-01-21T19:34:14.081Z,76.70
2023-01-21T19:36:42.114Z,61.10
2023-01-21T19:39:16.681Z,52.63
2023-01-21T19:41:44.753Z,54.57
2023-01-21T19:44:12.751Z,52.03
2023-01-21T19:46:40.833Z,52.77
2023-01-21T19:49:15.782Z,54.17
2023-01-21T19:51:44.935Z,51.23
2023-01-21T19:54:12.997Z,50.73
2023-01-21T19:56:41.016Z,45.20
2023-01-21T19:59:11.729Z,52.30
2023-01-21T20:01:39.742Z,47.13
2023-01-21T20:04:07.751Z,45.00
2023-01-21T20:06:40.347Z,46.37
2023-01-21T20:09:14.521Z,58.70
2023-01-21T20:11:42.587Z,47.30
2023-01-21T20:14:10.563Z,56.50
2023-01-21T20:16:44.655Z,44.40
2023-01-21T20:19:16.305Z,50.90
2023-01-21T20:21:59.863Z,46.40
2023-01-21T20:24:30.209Z,48.43
2023-01-21T20:26:58.487Z,44.57
2023-01-21T20:29:27.456Z,56.10
2023-01-21T20:31:55.499Z,54.20
2023-01-21T20:34:23.547Z,53.57
2023-01-21T20:36:53.531Z,54.50
2023-01-21T20:39:21.661Z,44.60
2023-01-21T20:41:49.631Z,61.50
2023-01-21T20:44:17.890Z,60.13
2023-01-21T20:46:46.445Z,57.53
2023-01-21T20:49:14.460Z,51.07
2023-01-21T20:51:42.421Z,59.43
2023-01-21T20:54:11.790Z,61.80
2023-01-21T20:56:39.799Z,46.20
2023-01-21T20:59:09.892Z,57.93
2023-01-21T21:01:39.394Z,63.47
2023-01-21T21:04:07.502Z,53.33
2023-01-21T21:06:35.498Z,53.67
2023-01-21T21:09:03.457Z,60.20
2023-01-21T21:11:32.756Z,45.73
2023-01-21T21:14:01.836Z,54.07
2023-01-21T21:16:31.865Z,52.17
2023-01-21T21:19:00.551Z,63.23
2023-01-21T21:21:29.441Z,50.90
2023-01-21T21:23:57.619Z,58.17
2023-01-21T21:26:29.021Z,47.37
2023-01-21T21:28:58.373Z,51.50
2023-01-21T21:31:31.743Z,48.67
2023-01-21T21:33:59.923Z,39.20
2023-01-21T21:36:28.179Z,44.93
2023-01-21T21:38:56.395Z,45.90
2023-01-21T21:41:43.739Z,44.93
2023-01-21T21:44:13.619Z,41.20
2023-01-21T21:46:59.372Z,54.47
2023-01-21T21:49:27.459Z,52.80
2023-01-21T21:51:55.591Z,58.97
2023-01-21T21:54:23.664Z,51.10
2023-01-21T21:56:51.676Z,56.83
2023-01-21T21:59:21.032Z,39.10
2023-01-21T22:01:49.087Z,42.53
2023-01-21T22:04:17.320Z,52.97
2023-01-21T22:06:45.616Z,53.13
2023-01-21T22:09:14.728Z,51.97
2023-01-21T22:11:42.828Z,48.30
2023-01-21T22:14:11.169Z,54.70
2023-01-21T22:16:40.718Z,47.03
2023-01-21T22:19:08.756Z,38.87
2023-01-21T22:21:36.783Z,48.00
2023-01-21T22:24:06.786Z,46.40
2023-01-21T22:26:35.694Z,43.53
2023-01-21T22:29:04.316Z,42.03
2023-01-21T22:31:33.316Z,47.83
2023-01-21T22:34:02.948Z,34.07
2023-01-21T22:36:31.820Z,42.93
2023-01-21T22:39:00.433Z,37.37
2023-01-21T22:41:28.723Z,36.97
2023-01-21T22:43:56.969Z,39.87
2023-01-21T22:46:26.755Z,39.80
2023-01-21T22:48:55.289Z,42.73
2023-01-21T22:51:25.025Z,45.30
2023-01-21T22:53:54.023Z,43.10
2023-01-21T22:56:39.880Z,42.07
2023-01-21T22:59:11.846Z,42.33
2023-01-21T23:01:39.931Z,36.87
2023-01-21T23:04:08.070Z,45.43
2023-01-21T23:06:38.088Z,34.23
2023-01-21T23:09:09.174Z,40.43
2023-01-21T23:11:39.439Z,37.23
2023-01-21T23:14:08.659Z,38.20
2023-01-21T23:16:36.651Z,40.17
2023-01-21T23:19:04.684Z,38.90
2023-01-21T23:21:32.695Z,47.00
2023-01-21T23:24:01.987Z,42.20
2023-01-21T23:26:29.980Z,47.27
2023-01-21T23:28:58.708Z,39.00
2023-01-21T23:31:27.080Z,35.50
2023-01-21T23:33:57.188Z,36.30
2023-01-21T23:36:25.305Z,36.90
2023-01-21T23:38:53.283Z,35.67
2023-01-21T23:41:22.638Z,36.73
2023-01-21T23:43:50.661Z,34.43
2023-01-21T23:46:20.424Z,33.07
2023-01-21T23:48:48.811Z,47.83
2023-01-21T23:51:18.409Z,38.97
2023-01-21T23:53:47.609Z,39.17
2023-01-21T23:56:17.623Z,35.73
2023-01-21T23:58:47.292Z,37.37
